Time;durP1;ratioP1;P1;durP2;ratioP2;P2;SDS_P1;SDS_P2;PMS_P1;PMS_P2;Temp;Humidity;BMP_temperature;BMP_pressure;BME280_temperature;BME280_humidity;BME280_pressure;Samples;Min_cycle;Max_cycle;Signal;HPM_P1;HPM_P2
2022/05/25 03:59:31;;;;;;;;;;;;;;;8.28;92.05;99502.31;6305049;22;20253;-83
2022/05/25 04:01:56;;;;;;;;;;;;;;;8.31;92.30;99520.66;6305835;22;19915;-83
2022/05/25 04:04:21;;;;;;;;;;;;;;;8.28;92.67;99516.38;6307255;22;19949;-86
2022/05/25 04:06:46;;;;;;;;;;;;;;;8.25;92.90;99515.63;6306904;22;19984;-85
2022/05/25 04:09:12;;;;;;;;;;;;;;;8.24;92.84;99527.97;6307365;22;19915;-87
2022/05/25 04:11:39;;;;;;;;;;;;;;;8.19;92.75;99530.78;6304943;22;19993;-86
2022/05/25 04:14:05;;;;;;;;;;;;;;;8.24;92.92;99530.59;6307273;22;19937;-87
2022/05/25 04:16:40;;;;;;;;;;;;;;;8.26;93.04;99534.03;6306692;22;19911;-91
2022/05/25 04:19:05;;;;;;;;;;;;;;;8.32;92.74;99525.03;6307113;22;19998;-93
2022/05/25 04:21:31;;;;;;;;;;;;;;;8.25;92.73;99542.91;6306976;22;19946;-85
2022/05/25 04:23:58;;;;;;;;;;;;;;;8.28;92.73;99537.50;6307090;22;19911;-85
2022/05/25 04:26:24;;;;;;;;;;;;;;;8.41;92.68;99532.63;6305037;22;19950;-84
2022/05/25 04:28:54;;;;;;;;;;;;;;;8.29;92.34;99538.34;6306688;22;19911;-85
2022/05/25 04:31:19;;;;;;;;;;;;;;;8.18;92.53;99530.84;6306730;22;19918;-84
2022/05/25 04:33:44;;;;;;;;;;;;;;;8.24;92.76;99545.59;6306970;22;19910;-82
2022/05/25 04:36:10;;;;;;;;;;;;;;;8.26;93.24;99546.38;6306664;22;19910;-82
2022/05/25 04:38:36;;;;;;;;;;;;;;;8.33;93.32;99545.25;6305439;22;19911;-82
2022/05/25 04:41:01;;;;;;;;;;;;;;;8.32;93.56;99547.00;6303971;22;19957;-81
2022/05/25 04:43:27;;;;;;;;;;;;;;;8.26;93.66;99544.59;6306446;22;19915;-81
2022/05/25 04:45:52;;;;;;;;;;;;;;;8.26;93.92;99546.38;6306720;22;19915;-83
2022/05/25 04:48:21;;;;;;;;;;;;;;;8.28;94.21;99558.63;6306544;22;19947;-83
2022/05/25 04:50:46;;;;;;;;;;;;;;;8.31;94.36;99558.50;6305035;22;19915;-83
2022/05/25 04:53:13;;;;;;;;;;;;;;;8.31;94.10;99561.16;6306428;22;19911;-83
2022/05/25 04:58:24;;;;;;;;;;;;;;;8.25;94.36;99566.66;6306109;22;19982;-84
2022/05/25 05:00:50;;;;;;;;;;;;;;;8.23;94.05;99565.81;6306445;22;20326;-84
2022/05/25 05:03:15;;;;;;;;;;;;;;;8.19;94.16;99567.72;6306943;22;19918;-83
2022/05/25 05:05:40;;;;;;;;;;;;;;;8.20;93.87;99571.25;6305020;22;19911;-83
2022/05/25 05:08:07;;;;;;;;;;;;;;;8.19;94.20;99575.66;6306797;22;19940;-84
2022/05/25 05:10:32;;;;;;;;;;;;;;;8.23;94.33;99578.16;6306258;22;19926;-83
2022/05/25 05:12:57;;;;;;;;;;;;;;;8.18;94.07;99579.22;6304856;22;19918;-83
2022/05/25 05:15:22;;;;;;;;;;;;;;;8.22;93.89;99584.34;6306325;22;20319;-83
2022/05/25 07:49:24;;;;;;;;;;;;;;;8.19;95.35;99710.25;6243547;22;19972;-84
2022/05/25 07:51:50;;;;;;;;;;;;;;;8.27;95.16;99710.00;6245461;23;20319;-85
2022/05/25 07:54:15;;;;;;;;;;;;;;;8.09;95.09;99710.63;6245504;23;19918;-85
2022/05/25 07:56:40;;;;;;;;;;;;;;;8.23;95.16;99712.78;6245588;23;20278;-85
2022/05/25 07:59:08;;;;;;;;;;;;;;;8.25;94.99;99716.22;6245281;23;20327;-84
2022/05/25 08:07:07;;;;;;;;;;;;;;;8.17;94.89;99717.38;6245438;23;20290;-85
2022/05/25 08:09:33;;;;;;;;;;;;;;;8.16;94.70;99720.06;6245240;23;19915;-86
2022/05/25 08:12:26;;;;;;;;;;;;;;;8.83;96.44;99713.34;6245494;23;20402;-87
2022/05/25 08:17:52;;;;;;;;;;;;;;;;;;;;;
2022/05/25 08:26:17;;;;;;;;;;;;;;;7.75;92.96;99723.13;6206926;23;19990;-96
2022/05/25 08:31:57;;;;;;;;;;;;;;;7.76;92.22;99713.47;6211032;23;20316;-85
2022/05/25 08:34:34;;;;;;;;;;;;;;;8.34;94.40;99723.84;6237639;23;19931;-88
2022/05/25 08:37:17;;;;;;;;;;;;;;;10.38;95.79;99708.94;6212185;23;19942;-91
2022/05/25 08:39:54;;;;;;;;;;;;;;;11.08;94.29;99712.88;6186659;23;20348;-89
2022/05/25 08:42:20;;;;;;;;;;;;;;;11.00;93.02;99717.69;6217977;23;19912;-85
2022/05/25 08:44:48;;;;;;;;;;;;;;;10.16;94.05;99706.31;6244889;23;19920;-86
2022/05/25 08:47:14;;;;;;;;;;;;;;;9.77;93.99;99702.63;6243507;23;19919;-86
2022/05/25 08:49:42;;;;;;;;;;;;;;;9.61;93.94;99704.19;6244525;22;20267;-85
2022/05/25 08:52:26;;;;;;;;;;;;;;;9.47;93.45;99704.72;6243563;23;20315;-86
2022/05/25 08:54:51;;;;;;;;;;;;;;;9.43;93.42;99703.16;6245156;23;19912;-84
2022/05/25 08:57:19;;;;;;;;;;;;;;;9.35;93.16;99698.16;6244945;23;19934;-85
2022/05/25 08:59:55;;;;;;;;;;;;;;;9.31;93.16;99706.25;6244646;23;19915;-85
2022/05/25 09:02:26;;;;;;;;;;;;;;;9.31;93.18;99704.47;6266170;22;20002;-84
2022/05/25 09:05:16;;;;;;;;;;;;;;;9.19;93.09;99705.81;6275480;22;20767;-87
2022/05/25 09:07:50;;;;;;;;;;;;;;;9.27;93.17;99709.03;6235696;22;19916;-85
2022/05/25 09:10:17;;;;;;;;;;;;;;;9.19;92.81;99705.81;6275791;22;19911;-90
2022/05/25 09:12:44;;;;;;;;;;;;;;;9.29;93.07;99705.47;6248141;22;20315;-85
2022/05/25 09:15:17;;;;;;;;;;;;;;;9.13;92.72;99703.41;6275717;22;19911;-88
2022/05/25 09:17:48;;;;;;;;;;;;;;;9.16;92.95;99705.94;6273839;22;19918;-85
2022/05/25 09:20:20;;;;;;;;;;;;;;;9.22;92.67;99702.19;6248392;22;19916;-86
2022/05/25 09:22:47;;;;;;;;;;;;;;;9.09;92.69;99701.78;6275661;22;19943;-90
2022/05/25 09:25:13;;;;;;;;;;;;;;;9.19;92.87;99700.53;6275318;22;19965;-84
2022/05/25 09:27:52;;;;;;;;;;;;;;;9.06;92.40;99700.13;6275520;22;19915;-87
2022/05/25 09:30:27;;;;;;;;;;;;;;;;;;;;;
2022/05/25 09:33:03;;;;;;;;;;;;;;;9.06;92.20;99701.91;6273819;22;20394;-88
2022/05/25 09:35:31;;;;;;;;;;;;;;;9.09;92.21;99704.44;6275174;22;19934;-86
2022/05/25 09:38:03;;;;;;;;;;;;;;;9.09;92.02;99691.22;6276578;22;20153;-87
2022/05/25 09:40:34;;;;;;;;;;;;;;;9.09;92.30;99704.44;6250340;22;20001;-86
2022/05/25 09:43:09;;;;;;;;;;;;;;;9.07;91.99;99696.56;6250083;22;19915;-90
2022/05/25 09:45:53;;;;;;;;;;;;;;;9.08;92.38;99697.44;6274375;22;19911;-87
2022/05/25 09:51:33;;;;;;;;;;;;;;;9.04;92.08;99693.19;6260631;22;19915;-87
2022/05/25 09:54:53;;;;;;;;;;;;;;;;;;;;;
2022/05/25 09:57:23;;;;;;;;;;;;;;;8.98;92.35;99701.34;6272158;22;19912;-88
2022/05/25 10:00:14;;;;;;;;;;;;;;;9.05;92.17;99700.19;6249111;22;19969;-89
2022/05/25 10:06:28;;;;;;;;;;;;;;;;;;;;;
2022/05/25 10:09:19;;;;;;;;;;;;;;;9.01;91.81;99707.34;6178754;22;20260;-90
2022/05/25 10:11:49;;;;;;;;;;;;;;;9.06;91.67;99716.00;6236882;22;20394;-92
2022/05/25 10:14:44;;;;;;;;;;;;;;;9.03;91.86;99713.47;6250273;22;19907;-91
2022/05/25 10:20:04;;;;;;;;;;;;;;;9.09;91.89;99715.00;6215572;22;19942;-86
2022/05/25 10:22:34;;;;;;;;;;;;;;;9.16;91.92;99715.63;6306522;22;19919;-89
2022/05/25 10:28:35;;;;;;;;;;;;;;;;;;;;;
2022/05/25 10:37:19;;;;;;;;;;;;;;;9.18;91.77;99709.38;6306694;22;20281;-88
2022/05/25 10:39:50;;;;;;;;;;;;;;;9.16;91.68;99711.22;6306053;22;19918;-89
2022/05/25 10:45:16;;;;;;;;;;;;;;;9.19;91.62;99719.03;6259594;22;19911;-87
2022/05/25 10:47:54;;;;;;;;;;;;;;;9.23;91.96;99714.47;6305829;22;19921;-88
2022/05/25 10:50:58;;;;;;;;;;;;;;;;;;;;;
2022/05/25 10:57:02;;;;;;;;;;;;;;;9.04;91.50;99714.31;6242708;22;20261;-91
2022/05/25 10:59:54;;;;;;;;;;;;;;;9.20;91.82;99712.81;6306236;22;19943;-91
2022/05/25 11:05:15;;;;;;;;;;;;;;;;;;;;;
2022/05/25 11:07:44;;;;;;;;;;;;;;;9.03;91.29;99712.59;6307459;22;20309;-87
2022/05/25 11:10:10;;;;;;;;;;;;;;;9.09;91.36;99709.72;6280967;22;19915;-86
2022/05/25 11:12:38;;;;;;;;;;;;;;;9.19;91.27;99721.69;6279785;22;19965;-86
2022/05/25 11:15:32;;;;;;;;;;;;;;;;;;;;;
2022/05/25 11:18:27;;;;;;;;;;;;;;;9.15;91.28;99712.13;6199262;22;19997;-88
2022/05/25 11:21:17;;;;;;;;;;;;;;;;;;;;;
2022/05/25 11:23:53;;;;;;;;;;;;;;;9.11;91.08;99715.81;6306846;22;19990;-91
2022/05/25 11:26:44;;;;;;;;;;;;;;;;;;;;;
2022/05/25 11:29:27;;;;;;;;;;;;;;;9.19;91.58;99726.09;6305579;22;19994;-88
2022/05/25 11:34:45;;;;;;;;;;;;;;;9.23;91.88;99712.69;6336859;22;19929;-92
2022/05/25 11:37:30;;;;;;;;;;;;;;;9.22;91.49;99716.28;6310663;22;19993;-88
2022/05/25 11:40:21;;;;;;;;;;;;;;;9.19;92.01;99716.41;6310322;22;19914;-88
2022/05/25 11:42:49;;;;;;;;;;;;;;;9.16;91.70;99718.28;6337995;22;19960;-87
2022/05/25 11:45:43;;;;;;;;;;;;;;;9.17;91.76;99712.94;6310434;22;20005;-89
2022/05/25 11:48:14;;;;;;;;;;;;;;;9.19;91.45;99711.09;6294254;22;19921;-89
2022/05/25 11:51:01;;;;;;;;;;;;;;;9.20;91.65;99714.59;6310856;22;19926;-90
2022/05/25 11:53:28;;;;;;;;;;;;;;;9.17;91.52;99712.94;6339522;22;20203;-88
2022/05/25 11:56:16;;;;;;;;;;;;;;;9.21;91.83;99713.69;6338295;22;19922;-89
2022/05/25 11:58:41;;;;;;;;;;;;;;;9.19;91.59;99715.50;6338190;22;19910;-90
2022/05/25 12:01:09;;;;;;;;;;;;;;;9.18;91.81;99705.88;6337410;22;20358;-87
2022/05/25 12:03:41;;;;;;;;;;;;;;;9.23;92.00;99715.34;6309452;22;20006;-87
2022/05/25 12:06:15;;;;;;;;;;;;;;;9.07;91.54;99717.69;6338126;22;19941;-88
2022/05/25 12:09:07;;;;;;;;;;;;;;;9.16;92.17;99723.56;6310541;22;20245;-86
2022/05/25 12:12:09;;;;;;;;;;;;;;;;;;;;;
2022/05/25 12:14:45;;;;;;;;;;;;;;;9.03;91.53;99720.50;6338436;22;19993;-89
2022/05/25 12:20:24;;;;;;;;;;;;;;;;;;;;;
2022/05/25 12:22:51;;;;;;;;;;;;;;;9.17;91.71;99718.22;6338104;22;20001;-87
2022/05/25 12:25:20;;;;;;;;;;;;;;;9.20;91.54;99710.16;6338406;22;19922;-88
2022/05/25 12:28:05;;;;;;;;;;;;;;;9.12;91.66;99714.88;6337960;22;19921;-87
2022/05/25 12:30:33;;;;;;;;;;;;;;;9.07;91.47;99708.91;6309564;22;19921;-86
2022/05/25 12:33:28;;;;;;;;;;;;;;;9.07;91.68;99716.84;6308322;22;19935;-87
2022/05/25 12:36:06;;;;;;;;;;;;;;;;;;;;;
2022/05/25 12:38:34;;;;;;;;;;;;;;;9.17;91.77;99702.34;6338002;22;20029;-89
2022/05/25 12:41:28;;;;;;;;;;;;;;;9.16;91.70;99705.94;6337373;22;19914;-86
2022/05/25 12:48:30;;;;;;;;;;;;;;;9.15;91.93;99706.00;6337867;22;19915;-87
2022/05/25 12:50:24;;;;;;;;;;;;;;;9.13;91.41;99711.34;6333616;22;20338;-88
2022/05/25 12:52:58;;;;;;;;;;;;;;;9.10;91.59;99711.44;6276105;22;19911;-86
2022/05/25 12:55:31;;;;;;;;;;;;;;;9.13;91.06;99710.47;6336811;22;19937;-88
2022/05/25 12:58:06;;;;;;;;;;;;;;;9.08;91.34;99713.31;6309404;22;20310;-88
2022/05/25 13:00:34;;;;;;;;;;;;;;;9.15;91.37;99704.19;6338207;22;19945;-87
2022/05/25 13:03:20;;;;;;;;;;;;;;;9.05;91.05;99702.84;6336445;22;20416;-87
2022/05/25 13:05:58;;;;;;;;;;;;;;;9.14;91.26;99699.81;6268691;22;19911;-86
2022/05/25 13:08:45;;;;;;;;;;;;;;;9.19;92.11;99703.19;6246714;22;19911;-87
2022/05/25 13:11:27;;;;;;;;;;;;;;;9.86;97.20;99693.47;6273088;22;20304;-88
2022/05/25 13:14:00;;;;;;;;;;;;;;;9.96;100.00;99696.59;6274495;22;20278;-87
2022/05/25 13:16:41;;;;;;;;;;;;;;;9.50;98.67;99694.03;6247202;22;19911;-87
2022/05/25 13:19:13;;;;;;;;;;;;;;;10.00;100.00;99687.59;6274490;22;19965;-88
2022/05/25 13:21:42;;;;;;;;;;;;;;;10.40;100.00;99690.34;6274539;22;20006;-88
2022/05/25 13:24:07;;;;;;;;;;;;;;;9.89;100.00;99690.69;6248905;22;19911;-87
2022/05/25 13:26:51;;;;;;;;;;;;;;;9.67;100.00;99696.00;6274521;22;19922;-90
2022/05/25 13:29:24;;;;;;;;;;;;;;;9.58;97.70;99691.94;6278530;22;19926;-86
2022/05/25 13:31:57;;;;;;;;;;;;;;;9.40;96.42;99682.97;6338428;22;19915;-88
2022/05/25 13:34:22;;;;;;;;;;;;;;;9.34;95.25;99690.28;6312097;22;19915;-88
2022/05/25 13:36:55;;;;;;;;;;;;;;;9.33;94.12;99693.84;6339712;22;19997;-86
2022/05/25 13:39:27;;;;;;;;;;;;;;;9.32;93.51;99700.03;6339840;22;20322;-88
2022/05/25 13:42:08;;;;;;;;;;;;;;;9.36;93.17;99697.22;6311708;22;19910;-86
2022/05/25 13:44:41;;;;;;;;;;;;;;;9.54;93.95;99695.66;6312346;22;19967;-87
2022/05/25 13:47:09;;;;;;;;;;;;;;;10.13;98.90;99687.91;6338113;22;19918;-87
2022/05/25 13:49:45;;;;;;;;;;;;;;;10.13;100.00;99699.41;6312123;22;19914;-88
2022/05/25 13:52:12;;;;;;;;;;;;;;;9.67;99.53;99701.31;6311716;22;19910;-86
2022/05/25 13:54:41;;;;;;;;;;;;;;;9.98;100.00;99690.28;6339106;22;19914;-88
2022/05/25 13:57:29;;;;;;;;;;;;;;;10.32;100.00;99704.81;6339077;22;19922;-89
2022/05/25 13:59:55;;;;;;;;;;;;;;;9.96;100.00;99699.25;6311632;22;19911;-88
2022/05/25 14:02:28;;;;;;;;;;;;;;;10.01;100.00;99699.91;6337590;22;19914;-86
2022/05/25 14:04:55;;;;;;;;;;;;;;;10.43;100.00;99693.72;6311485;22;19910;-85
2022/05/25 14:07:32;;;;;;;;;;;;;;;10.21;100.00;99703.50;6312021;22;19910;-88
2022/05/25 14:13:12;;;;;;;;;;;;;;;9.56;98.98;99703.53;6339267;22;20020;-87
2022/05/25 14:15:38;;;;;;;;;;;;;;;9.99;99.63;99701.75;6339034;22;19915;-87
2022/05/25 14:18:23;;;;;;;;;;;;;;;10.39;100.00;99693.91;6337363;22;19921;-89
2022/05/25 14:23:45;;;;;;;;;;;;;;;10.16;100.00;99695.72;6338947;22;19968;-87
2022/05/25 14:26:34;;;;;;;;;;;;;;;10.61;100.00;99696.47;6338882;22;20367;-87
2022/05/25 14:29:17;;;;;;;;;;;;;;;;;;;;;
2022/05/25 14:35:19;;;;;;;;;;;;;;;;;;;;;
2022/05/25 14:38:09;;;;;;;;;;;;;;;;;;;;;
2022/05/25 14:46:50;;;;;;;;;;;;;;;;;;;;;
2022/05/25 14:49:28;;;;;;;;;;;;;;;10.58;100.00;99708.09;6181590;23;19998;-87
2022/05/25 14:52:12;;;;;;;;;;;;;;;10.25;100.00;99702.44;6182985;23;20257;-86
2022/05/25 14:54:37;;;;;;;;;;;;;;;10.34;100.00;99708.22;6241931;22;19911;-87
2022/05/25 14:57:05;;;;;;;;;;;;;;;10.63;100.00;99703.44;6338507;22;19998;-89
2022/05/25 14:59:42;;;;;;;;;;;;;;;10.24;100.00;99714.81;6338663;22;19967;-88
2022/05/25 15:02:21;;;;;;;;;;;;;;;9.90;100.00;99715.38;6309505;22;19917;-89
2022/05/25 15:04:54;;;;;;;;;;;;;;;9.74;99.79;99709.84;6339025;22;19910;-85
2022/05/25 15:07:41;;;;;;;;;;;;;;;9.75;97.68;99714.22;6311123;22;19918;-85
2022/05/25 15:10:19;;;;;;;;;;;;;;;10.14;98.36;99706.38;6311112;22;20341;-87
2022/05/25 15:12:52;;;;;;;;;;;;;;;10.56;100.00;99712.56;6311306;22;19964;-86
2022/05/25 15:18:36;;;;;;;;;;;;;;;10.21;100.00;99712.31;6336877;22;20001;-86
2022/05/25 15:21:16;;;;;;;;;;;;;;;10.62;100.00;99712.31;6338622;22;20338;-88
2022/05/25 15:23:54;;;;;;;;;;;;;;;10.17;100.00;99716.84;6338672;22;20242;-93
2022/05/25 15:26:31;;;;;;;;;;;;;;;10.20;100.00;99709.72;6338570;22;19910;-87
2022/05/25 15:29:12;;;;;;;;;;;;;;;10.62;100.00;99708.81;6338900;22;19910;-86
2022/05/25 15:31:40;;;;;;;;;;;;;;;10.56;100.00;99711.72;6336893;22;19911;-87
2022/05/25 15:34:29;;;;;;;;;;;;;;;10.10;100.00;99706.59;6307199;22;19930;-86
2022/05/25 15:37:46;;;;;;;;;;;;;;;10.62;100.00;99706.16;6319422;22;19937;-87
2022/05/25 15:40:07;;;;;;;;;;;;;;;10.40;100.00;99707.09;6330611;22;19993;-87
2022/05/25 15:42:41;;;;;;;;;;;;;;;10.08;100.00;99725.19;6338436;22;19914;-86
2022/05/25 15:45:09;;;;;;;;;;;;;;;9.87;100.00;99713.69;6338243;22;19981;-87
2022/05/25 15:48:12;;;;;;;;;;;;;;;9.82;98.67;99711.25;6270595;22;20164;-90
2022/05/25 15:50:41;;;;;;;;;;;;;;;10.14;98.71;99710.84;6229199;22;19915;-88
2022/05/25 15:53:09;;;;;;;;;;;;;;;10.67;100.00;99720.94;6273063;22;19922;-85
2022/05/25 15:55:42;;;;;;;;;;;;;;;10.44;100.00;99719.28;6272580;22;19919;-90
2022/05/25 15:58:14;;;;;;;;;;;;;;;9.97;100.00;99715.06;6272738;22;20343;-87
2022/05/25 16:00:42;;;;;;;;;;;;;;;9.89;98.80;99716.28;6273060;22;19911;-88
2022/05/25 16:03:19;;;;;;;;;;;;;;;9.77;96.71;99723.81;6269309;22;20290;-88
2022/05/25 16:05:56;;;;;;;;;;;;;;;9.74;95.39;99718.63;6271931;22;19915;-87
2022/05/25 16:11:33;;;;;;;;;;;;;;;9.60;93.48;99716.53;6286045;22;19952;-86
2022/05/25 16:14:01;;;;;;;;;;;;;;;10.06;96.75;99711.16;6310302;22;19914;-87
2022/05/25 16:16:29;;;;;;;;;;;;;;;10.47;100.00;99710.34;6308671;22;19921;-87
2022/05/25 16:19:04;;;;;;;;;;;;;;;10.06;100.00;99710.31;6338121;22;19911;-90
2022/05/25 16:21:31;;;;;;;;;;;;;;;9.85;98.58;99712.06;6338222;22;19951;-89
2022/05/25 16:23:59;;;;;;;;;;;;;;;9.67;96.36;99717.16;6310737;22;19918;-87
2022/05/25 16:26:26;;;;;;;;;;;;;;;9.61;94.86;99723.56;6338124;22;19913;-88
2022/05/25 16:29:04;;;;;;;;;;;;;;;9.57;93.73;99716.69;6309082;22;19910;-86
2022/05/25 16:31:32;;;;;;;;;;;;;;;9.55;93.16;99718.50;6336507;22;19918;-86
2022/05/25 16:34:05;;;;;;;;;;;;;;;9.54;92.59;99719.44;6337195;22;20277;-86
2022/05/25 16:36:32;;;;;;;;;;;;;;;10.13;97.25;99719.69;6337519;22;19910;-87
2022/05/25 16:45:28;;;;;;;;;;;;;;;;;;;;;
2022/05/25 16:47:53;;;;;;;;;;;;;;;9.58;95.31;99728.97;6305237;22;19993;-86
2022/05/25 16:50:21;;;;;;;;;;;;;;;9.59;94.39;99730.69;6284165;22;19942;-88
2022/05/25 16:52:49;;;;;;;;;;;;;;;9.60;93.45;99728.91;6309945;22;19917;-85
2022/05/25 16:58:20;;;;;;;;;;;;;;;9.44;92.48;99736.59;6337457;22;20594;-85
2022/05/25 17:00:51;;;;;;;;;;;;;;;9.59;93.15;99740.44;6336232;22;19963;-87
2022/05/25 17:03:19;;;;;;;;;;;;;;;10.14;97.53;99738.16;6308936;22;19930;-88
2022/05/25 17:05:47;;;;;;;;;;;;;;;10.42;100.00;99741.47;6336808;22;19914;-86
2022/05/25 17:08:22;;;;;;;;;;;;;;;9.88;99.55;99736.59;6337723;22;19917;-87
2022/05/25 17:10:57;;;;;;;;;;;;;;;;;;;;;
2022/05/25 17:13:27;;;;;;;;;;;;;;;9.59;95.46;99748.38;6338250;22;20258;-87
2022/05/25 17:16:02;;;;;;;;;;;;;;;;;;;;;
2022/05/25 17:21:33;;;;;;;;;;;;;;;9.44;92.73;99752.44;6337351;22;19922;-88
2022/05/25 17:23:59;;;;;;;;;;;;;;;9.43;92.29;99750.75;6309528;22;19911;-88
2022/05/25 17:26:27;;;;;;;;;;;;;;;9.48;92.24;99753.19;6309462;22;20315;-85
2022/05/25 17:28:54;;;;;;;;;;;;;;;9.40;91.68;99767.59;6310410;22;19918;-85
2022/05/25 17:31:19;;;;;;;;;;;;;;;9.42;91.99;99764.88;6336133;22;19918;-89
2022/05/25 17:33:55;;;;;;;;;;;;;;;9.41;91.71;99765.78;6308910;22;19918;-86
2022/05/25 17:42:06;;;;;;;;;;;;;;;9.36;91.47;99768.59;6302987;22;20204;-87
2022/05/25 17:44:32;;;;;;;;;;;;;;;9.43;91.59;99777.19;6306038;22;19993;-88
2022/05/25 17:47:01;;;;;;;;;;;;;;;9.33;91.28;99775.81;6304485;22;20330;-86
2022/05/25 17:49:27;;;;;;;;;;;;;;;9.34;91.75;99777.53;6278177;22;20309;-85
2022/05/25 17:51:54;;;;;;;;;;;;;;;9.40;91.83;99782.59;6306727;22;19940;-88
2022/05/25 17:54:20;;;;;;;;;;;;;;;9.36;91.48;99780.97;6305756;22;19911;-87
2022/05/25 17:56:47;;;;;;;;;;;;;;;9.33;91.59;99783.75;6305888;22;19942;-86
2022/05/25 17:59:17;;;;;;;;;;;;;;;9.36;91.74;99781.84;6307255;22;19960;-86
2022/05/25 18:01:44;;;;;;;;;;;;;;;9.29;91.39;99779.50;6306796;22;19910;-88
2022/05/25 18:04:10;;;;;;;;;;;;;;;9.30;91.50;99792.63;6306590;22;20212;-85
2022/05/25 18:06:41;;;;;;;;;;;;;;;9.36;91.73;99791.56;6307725;22;19984;-87
2022/05/25 18:09:21;;;;;;;;;;;;;;;;;;;;;
2022/05/25 18:11:50;;;;;;;;;;;;;;;9.35;91.92;99796.00;6274002;22;19998;-86
2022/05/25 18:14:21;;;;;;;;;;;;;;;9.39;92.04;99796.72;6273480;22;19919;-87
2022/05/25 18:17:06;;;;;;;;;;;;;;;9.33;91.83;99803.09;6271558;22;19912;-88
2022/05/25 18:19:32;;;;;;;;;;;;;;;9.34;92.01;99806.63;6274435;22;19918;-86
2022/05/25 18:22:04;;;;;;;;;;;;;;;9.39;92.12;99808.16;6273764;22;19912;-86
2022/05/25 18:24:32;;;;;;;;;;;;;;;9.33;92.03;99813.69;6273259;22;19977;-87
2022/05/25 18:26:58;;;;;;;;;;;;;;;9.32;92.14;99817.25;6274200;22;20247;-86
2022/05/25 18:29:23;;;;;;;;;;;;;;;9.42;92.38;99828.34;6273688;22;19911;-88
2022/05/25 18:31:58;;;;;;;;;;;;;;;9.34;91.96;99815.41;6272368;22;19914;-89
2022/05/25 18:34:24;;;;;;;;;;;;;;;9.36;91.97;99818.00;6279653;22;19942;-87
2022/05/25 18:36:49;;;;;;;;;;;;;;;9.38;92.36;99817.03;6279998;22;19953;-89
2022/05/25 18:39:14;;;;;;;;;;;;;;;9.35;92.13;99824.19;6308333;22;20246;-90
2022/05/25 18:41:43;;;;;;;;;;;;;;;9.30;92.16;99824.38;6307385;22;19911;-91
2022/05/25 18:44:08;;;;;;;;;;;;;;;9.35;92.38;99834.78;6279862;22;19911;-86
2022/05/25 18:46:34;;;;;;;;;;;;;;;9.36;92.41;99823.28;6305528;22;20323;-84
2022/05/25 18:49:01;;;;;;;;;;;;;;;9.30;92.35;99827.00;6307762;22;19915;-87
2022/05/25 18:51:45;;;;;;;;;;;;;;;9.30;92.69;99829.66;6278975;22;19919;-86
2022/05/25 18:54:13;;;;;;;;;;;;;;;9.33;92.48;99836.63;6305168;22;19942;-86
2022/05/25 18:56:40;;;;;;;;;;;;;;;9.35;92.48;99827.72;6279714;22;20382;-86
2022/05/25 18:59:07;;;;;;;;;;;;;;;9.29;92.63;99835.03;6306441;22;19915;-85
2022/05/25 19:01:33;;;;;;;;;;;;;;;9.33;92.45;99833.97;6278970;22;19978;-84
2022/05/25 19:03:59;;;;;;;;;;;;;;;9.27;92.40;99841.22;6279613;22;19938;-85
2022/05/25 19:06:25;;;;;;;;;;;;;;;9.30;92.65;99839.38;6307175;22;19914;-85
2022/05/25 19:11:43;;;;;;;;;;;;;;;9.29;92.58;99841.16;6307959;22;19911;-87
2022/05/25 19:14:09;;;;;;;;;;;;;;;9.33;92.56;99850.69;6307395;22;19921;-85
2022/05/25 19:19:45;;;;;;;;;;;;;;;9.35;92.47;99855.94;6308410;22;19921;-87
2022/05/25 19:22:14;;;;;;;;;;;;;;;9.27;92.06;99857.09;6306902;22;19981;-86
2022/05/25 19:24:43;;;;;;;;;;;;;;;9.25;91.98;99866.88;6306991;22;19922;-86
2022/05/25 19:27:10;;;;;;;;;;;;;;;9.32;92.22;99871.91;6307042;22;19910;-87
2022/05/25 19:30:28;;;;;;;;;;;;;;;;;;;;;
2022/05/25 19:32:44;;;;;;;;;;;;;;;9.29;92.06;99877.34;6175822;23;20316;-86
2022/05/25 19:35:34;;;;;;;;;;;;;;;9.24;91.79;99880.13;6248355;22;19919;-86
2022/05/25 19:38:02;;;;;;;;;;;;;;;9.26;92.25;99884.44;6274706;22;20351;-84
2022/05/25 19:40:31;;;;;;;;;;;;;;;9.20;91.82;99889.94;6276184;22;19907;-86
2022/05/25 19:43:02;;;;;;;;;;;;;;;9.27;92.02;99893.25;6248106;22;19918;-85
2022/05/25 19:45:29;;;;;;;;;;;;;;;9.26;91.92;99899.44;6248910;22;19908;-85
2022/05/25 19:48:07;;;;;;;;;;;;;;;9.21;91.82;99898.75;6247050;22;20242;-88
2022/05/25 19:51:03;;;;;;;;;;;;;;;9.43;91.64;99901.50;6275937;22;19911;-88
2022/05/25 19:53:35;;;;;;;;;;;;;;;9.30;92.28;99908.13;6272248;22;19911;-93
2022/05/25 19:56:08;;;;;;;;;;;;;;;9.34;91.94;99909.75;6249039;22;19917;-88
2022/05/25 19:58:33;;;;;;;;;;;;;;;9.24;92.13;99914.50;6274151;22;20350;-86
2022/05/25 20:01:02;;;;;;;;;;;;;;;9.26;92.41;99912.66;6276607;22;19911;-88
2022/05/25 20:03:32;;;;;;;;;;;;;;;9.25;92.24;99916.22;6246989;22;19911;-89
2022/05/25 20:06:05;;;;;;;;;;;;;;;9.23;92.27;99924.19;6248484;22;19911;-91
2022/05/25 20:08:36;;;;;;;;;;;;;;;9.25;92.51;99925.03;6248143;22;19954;-88
2022/05/25 20:14:04;;;;;;;;;;;;;;;9.21;92.38;99930.47;6242545;23;19981;-88
2022/05/25 20:16:32;;;;;;;;;;;;;;;9.19;91.92;99933.19;6244178;22;19918;-88
2022/05/25 20:18:57;;;;;;;;;;;;;;;9.17;92.03;99942.91;6275648;22;19916;-87
2022/05/25 20:24:21;;;;;;;;;;;;;;;9.11;91.67;99935.22;6277381;22;19911;-85
2022/05/25 20:26:54;;;;;;;;;;;;;;;9.21;91.77;99935.78;6275400;22;19915;-87
2022/05/25 20:29:23;;;;;;;;;;;;;;;9.09;91.65;99937.94;6249027;22;20341;-86
2022/05/25 20:31:49;;;;;;;;;;;;;;;9.16;91.87;99943.84;6274006;22;19945;-87
2022/05/25 20:34:14;;;;;;;;;;;;;;;9.15;91.54;99942.13;6268073;22;19923;-87
2022/05/25 20:37:03;;;;;;;;;;;;;;;9.08;91.42;99945.91;6306088;22;19922;-90
2022/05/25 20:40:09;;;;;;;;;;;;;;;9.13;91.94;99943.97;6302635;22;19950;-90
2022/05/25 20:42:39;;;;;;;;;;;;;;;9.09;91.90;99942.31;6299994;22;19915;-88
2022/05/25 20:45:20;;;;;;;;;;;;;;;9.16;92.02;99943.84;6306268;22;19915;-93
2022/05/25 20:53:21;;;;;;;;;;;;;;;9.09;91.90;99947.63;6181090;23;20383;-86
2022/05/25 20:56:30;;;;;;;;;;;;;;;9.14;91.90;99944.81;6258776;22;19918;-89
2022/05/25 20:58:55;;;;;;;;;;;;;;;9.09;91.90;99952.91;6246548;22;19921;-87
2022/05/25 21:01:24;;;;;;;;;;;;;;;9.11;91.52;99953.72;6277934;22;19942;-87
2022/05/25 21:03:51;;;;;;;;;;;;;;;9.05;91.28;99952.16;6279025;22;19918;-87
2022/05/25 21:06:20;;;;;;;;;;;;;;;9.09;91.53;99960.81;6278843;22;19915;-87
2022/05/25 21:08:48;;;;;;;;;;;;;;;9.07;91.31;99962.66;6306541;22;19911;-93
2022/05/25 21:11:15;;;;;;;;;;;;;;;9.06;91.58;99961.81;6306648;22;19968;-88
2022/05/25 21:13:58;;;;;;;;;;;;;;;9.06;91.67;99964.47;6278353;22;19937;-87
2022/05/25 21:16:34;;;;;;;;;;;;;;;9.02;91.82;99967.25;6305057;22;19915;-88
2022/05/25 21:19:01;;;;;;;;;;;;;;;9.07;91.57;99965.31;6277270;22;19922;-87
2022/05/25 21:21:29;;;;;;;;;;;;;;;8.98;91.57;99965.63;6306421;22;20243;-89
2022/05/25 21:23:55;;;;;;;;;;;;;;;9.02;91.82;99969.91;6278558;22;19911;-87
2022/05/25 21:26:43;;;;;;;;;;;;;;;9.08;91.36;99975.84;6306337;22;19915;-88
2022/05/25 21:29:26;;;;;;;;;;;;;;;8.99;91.44;99967.34;6241042;23;19980;-87
2022/05/25 21:34:38;;;;;;;;;;;;;;;8.99;91.32;99964.72;6244295;23;19923;-88
2022/05/25 21:37:05;;;;;;;;;;;;;;;9.09;91.49;99968.75;6243468;23;20232;-87
2022/05/25 21:39:32;;;;;;;;;;;;;;;9.02;91.31;99967.25;6217744;23;19984;-87
2022/05/25 21:42:01;;;;;;;;;;;;;;;9.09;91.35;99966.13;6218178;23;19923;-87
2022/05/25 21:44:26;;;;;;;;;;;;;;;9.04;91.73;99970.69;6244071;23;19947;-86
2022/05/25 21:49:56;;;;;;;;;;;;;;;9.00;91.23;99969.06;6243994;22;19938;-92
2022/05/25 21:52:24;;;;;;;;;;;;;;;9.10;91.62;99981.06;6243466;23;20018;-86
2022/05/25 21:54:51;;;;;;;;;;;;;;;9.00;91.16;99982.28;6278281;22;19968;-87
2022/05/25 21:57:20;;;;;;;;;;;;;;;8.97;91.42;99977.97;6281191;22;20315;-85
2022/05/25 21:59:48;;;;;;;;;;;;;;;9.01;91.48;99976.94;6280600;22;19911;-86
2022/05/25 22:02:13;;;;;;;;;;;;;;;8.97;91.20;99991.19;6280019;22;20583;-87
2022/05/25 22:04:38;;;;;;;;;;;;;;;8.99;91.45;99989.34;6307536;22;20003;-87
2022/05/25 22:07:19;;;;;;;;;;;;;;;8.98;91.45;99984.13;6280593;22;20323;-91
2022/05/25 22:15:41;;;;;;;;;;;;;;;9.00;91.46;99998.13;6262085;22;19917;-87
2022/05/25 22:18:24;;;;;;;;;;;;;;;9.04;91.67;99992.69;6278473;22;19915;-88
2022/05/25 22:20:51;;;;;;;;;;;;;;;9.03;91.26;99996.28;6307554;22;19972;-88
2022/05/25 22:23:47;;;;;;;;;;;;;;;;;;;;;
2022/05/25 22:26:46;;;;;;;;;;;;;;;;;;;;;
2022/05/25 22:29:04;;;;;;;;;;;;;;;8.99;91.78;99997.28;6300241;22;19911;-89
2022/05/25 22:31:30;;;;;;;;;;;;;;;9.05;91.72;99993.59;6306976;22;19980;-90